SCVD

Details ICAO SCVD (ZAL)
Name Pichoy
Region Chile
Timezone America/Santiago (UTC-4.0)
Plans Departing 5
Arriving 7
Stats Elevation 59 ft / 18 m (AMSL)
Location -39.649955° -73.086111°
Runways 1
Magnetic Variation 7.399° E
Sunrise 2018-05-23 11:58:18 UTC / 2018-05-23 07:58:18 Local
Sunset 2018-05-23 21:42:47 UTC / 2018-05-23 17:42:47 Local
Advertisement - Login to hide

Runways

ID Width Length Bearing (true) Bearing (mag) Surface Threshold Offset Overrun Length
17 148 ft / 45 m 6,876 ft / 2,096 m 178.00° 170.60° Asphalt 0 ft / 0 m 240 ft / 73 m
35 148 ft / 45 m 6,876 ft / 2,096 m 358.00° 350.60° Asphalt 0 ft / 0 m 374 ft / 114 m

Map

Weather


0- 5 10 15 20 25 30 35+ Temperature / ° C

Clouds and Precipitation
Forecast for 2018-05-23 18:00 UTC. Updated 2 hours ago

Ground ~20,000 ft ~40,000 ft Winds

METAR

SCVD 231800Z 00000KT 9999 OVC004 07/07 Q1021

TAF

TAF SCVD 231030Z 2312/2324 VRB02KT 1500 BR OVC002 TN02/2312Z TX12/2318Z TEMPO 2312/2314 0800 FG BECMG 2315/2317 9999 NSW BKN012 BECMG 2318/2319 CAVOK

Frequencies

Tower 127.70 MHz AFIS
Warning: Do not use this data for real-world aviation or navigation. No guarantee of current accuracy is given.